Time;durP1;ratioP1;P1;durP2;ratioP2;P2;SDS_P1;SDS_P2;PMS_P1;PMS_P2;Temp;Humidity;BMP_temperature;BMP_pressure;BME280_temperature;BME280_humidity;BME280_pressure;Samples;Min_cycle;Max_cycle;Signal;HPM_P1;HPM_P2
2022/08/08 02:34:24;;;;;;;4.62;1.95;;;26.70;99.90;;;;;;1897701;72;21138;-69
2022/08/08 02:36:58;;;;;;;3.60;1.95;;;26.70;99.90;;;;;;1910307;74;21134;-70
2022/08/08 02:39:32;;;;;;;19.45;14.83;;;26.70;99.90;;;;;;1896390;74;21151;-69
2022/08/08 02:42:07;;;;;;;70.15;58.63;;;26.70;99.90;;;;;;1889735;74;21678;-69
2022/08/08 02:44:41;;;;;;;49.25;40.85;;;26.80;99.90;;;;;;1894573;74;21052;-69
2022/08/08 02:47:16;;;;;;;48.63;36.63;;;26.90;99.90;;;;;;1853144;76;21109;-69
2022/08/08 02:49:50;;;;;;;16.80;13.03;;;26.90;99.90;;;;;;1854447;75;21618;-69
2022/08/08 02:52:23;;;;;;;91.10;65.50;;;26.90;99.90;;;;;;1853895;76;21202;-70
2022/08/08 02:54:58;;;;;;;14.25;9.05;;;26.90;99.90;;;;;;1858626;76;21088;-69
2022/08/08 02:57:33;;;;;;;6.67;2.37;;;26.90;99.90;;;;;;1853745;76;21174;-70
2022/08/08 03:00:09;;;;;;;5.12;2.70;;;26.90;99.90;;;;;;1853421;76;21665;-70
2022/08/08 03:02:43;;;;;;;4.83;1.82;;;26.90;99.90;;;;;;1850146;76;21190;-70
2022/08/08 03:05:18;;;;;;;3.62;1.67;;;26.90;99.90;;;;;;1815017;77;21206;-70
2022/08/08 03:07:51;;;;;;;5.25;1.90;;;26.90;99.90;;;;;;1819240;77;21629;-69
2022/08/08 03:10:26;;;;;;;7.72;2.35;;;26.90;99.90;;;;;;1857841;75;21617;-70
2022/08/08 03:13:01;;;;;;;3.95;1.72;;;26.90;99.90;;;;;;1857240;75;21067;-70
2022/08/08 03:15:35;;;;;;;7.80;2.30;;;26.90;99.90;;;;;;1856855;76;21178;-69
2022/08/08 03:18:10;;;;;;;8.03;2.15;;;27.00;99.90;;;;;;1868308;76;21555;-69
2022/08/08 03:20:49;;;;;;;5.17;2.02;;;26.90;99.90;;;;;;1858965;75;21167;-70
2022/08/08 03:23:17;;;;;;;5.28;2.00;;;27.00;99.90;;;;;;1893975;75;21670;-70
2022/08/08 03:25:49;;;;;;;6.92;1.92;;;27.00;99.90;;;;;;1898427;75;21131;-70
2022/08/08 03:28:24;;;;;;;4.87;1.70;;;27.10;99.90;;;;;;1898903;75;21081;-70
2022/08/08 03:30:55;;;;;;;4.65;1.60;;;27.20;99.90;;;;;;1888143;75;21511;-70
2022/08/08 03:33:27;;;;;;;5.08;1.87;;;27.20;99.90;;;;;;1896674;75;21606;-70
2022/08/08 03:35:59;;;;;;;3.75;1.80;;;27.20;99.90;;;;;;1857365;76;21149;-69
2022/08/08 03:38:32;;;;;;;3.98;1.87;;;27.20;99.90;;;;;;1850737;76;21672;-69
2022/08/08 03:41:04;;;;;;;3.00;1.35;;;27.30;99.90;;;;;;1843199;77;21660;-70
2022/08/08 03:43:36;;;;;;;5.37;1.40;;;27.30;99.90;;;;;;1816456;78;21139;-69
2022/08/08 03:46:09;;;;;;;3.27;1.60;;;27.30;99.90;;;;;;1856099;76;21624;-71
2022/08/08 03:48:39;;;;;;;2.60;1.32;;;27.30;99.90;;;;;;1833043;77;21146;-69
2022/08/08 03:51:12;;;;;;;3.87;1.20;;;27.40;99.90;;;;;;1845404;77;21232;-70
2022/08/08 03:53:43;;;;;;;4.12;1.52;;;27.40;99.90;;;;;;1857783;76;21230;-70
2022/08/08 03:56:16;;;;;;;3.37;1.15;;;27.40;99.90;;;;;;1851222;76;21170;-70
2022/08/08 03:58:51;;;;;;;2.27;1.00;;;27.50;99.90;;;;;;1844424;77;21702;-71
2022/08/08 04:01:25;;;;;;;2.27;1.10;;;27.50;99.90;;;;;;1874941;76;21129;-70
2022/08/08 04:03:58;;;;;;;2.37;1.10;;;27.50;99.90;;;;;;1821403;77;21166;-71
2022/08/08 04:06:30;;;;;;;1.72;0.78;;;27.60;99.90;;;;;;1847198;77;21178;-70
2022/08/08 04:09:03;;;;;;;3.75;0.93;;;27.70;99.90;;;;;;1855589;76;21167;-69
2022/08/08 04:11:37;;;;;;;1.85;0.68;;;27.70;99.90;;;;;;1853720;77;21067;-70
2022/08/08 04:14:13;;;;;;;2.05;0.68;;;27.70;99.90;;;;;;1857151;76;21180;-70
2022/08/08 04:16:45;;;;;;;1.75;0.78;;;27.90;99.90;;;;;;1852122;76;21193;-70
2022/08/08 04:19:17;;;;;;;3.27;0.90;;;27.90;99.90;;;;;;1895231;75;21075;-70
2022/08/08 04:21:49;;;;;;;2.52;1.00;;;28.00;99.90;;;;;;1853299;77;21056;-70
2022/08/08 04:24:20;;;;;;;2.27;0.98;;;28.10;99.90;;;;;;1865425;76;21150;-70
2022/08/08 04:26:53;;;;;;;2.17;0.80;;;28.20;99.90;;;;;;1851397;76;21228;-71
2022/08/08 04:29:26;;;;;;;2.15;0.62;;;28.20;99.90;;;;;;1867629;76;21071;-69
2022/08/08 04:31:58;;;;;;;2.55;0.90;;;28.20;99.90;;;;;;1842988;77;21099;-71
2022/08/08 04:34:49;;;;;;;2.45;0.78;;;28.20;99.90;;;;;;1863602;76;21310;-70
2022/08/08 04:37:21;;;;;;;2.55;0.65;;;28.20;99.90;;;;;;1868954;76;22109;-70
2022/08/08 04:39:55;;;;;;;1.67;0.80;;;28.20;99.90;;;;;;1881186;75;21482;-71
2022/08/08 04:42:32;;;;;;;1.72;0.75;;;28.20;99.90;;;;;;1905057;75;21194;-71
2022/08/08 04:45:02;;;;;;;2.75;0.85;;;28.30;99.90;;;;;;1907966;75;21734;-70
2022/08/08 04:47:33;;;;;;;2.27;0.80;;;28.20;99.90;;;;;;1908883;75;21102;-71
2022/08/08 04:50:06;;;;;;;4.45;0.80;;;28.20;99.90;;;;;;1902179;74;21280;-71
2022/08/08 04:52:38;;;;;;;1.45;0.72;;;28.20;99.90;;;;;;1894259;75;21139;-71
2022/08/08 04:55:11;;;;;;;2.47;0.75;;;28.20;99.90;;;;;;1901791;75;21727;-70
2022/08/08 04:57:43;;;;;;;2.77;0.80;;;28.20;99.90;;;;;;1913276;75;21212;-71
2022/08/08 05:00:15;;;;;;;3.98;1.00;;;28.30;99.90;;;;;;1911852;75;21163;-70
2022/08/08 05:02:47;;;;;;;1.42;0.60;;;28.30;99.90;;;;;;1909015;75;21123;-70
2022/08/08 05:05:20;;;;;;;2.20;0.68;;;28.30;99.90;;;;;;1901050;75;21267;-70
2022/08/08 05:07:52;;;;;;;2.58;0.75;;;28.30;99.90;;;;;;1903582;75;21575;-71
2022/08/08 05:10:28;;;;;;;1.52;0.80;;;28.30;99.90;;;;;;1910796;75;21204;-71
2022/08/08 05:12:58;;;;;;;1.90;0.75;;;28.40;99.90;;;;;;1908195;75;21072;-70
2022/08/08 05:15:30;;;;;;;2.95;0.60;;;28.40;99.90;;;;;;1913164;75;21227;-70
2022/08/08 05:18:02;;;;;;;3.12;0.70;;;28.40;99.90;;;;;;1908500;75;21475;-70
2022/08/08 05:20:33;;;;;;;1.10;0.57;;;28.40;99.90;;;;;;1914163;75;21242;-70
2022/08/08 05:23:05;;;;;;;2.15;1.10;;;28.40;99.90;;;;;;1904672;74;21515;-69
2022/08/08 05:25:38;;;;;;;1.77;0.78;;;28.50;99.90;;;;;;1911842;75;21151;-69
2022/08/08 05:28:10;;;;;;;3.47;0.93;;;28.50;99.90;;;;;;1913799;75;20997;-69
2022/08/08 05:30:42;;;;;;;1.90;0.60;;;28.60;99.90;;;;;;1893963;75;21222;-70
2022/08/08 05:33:16;;;;;;;1.62;0.60;;;28.70;99.90;;;;;;1906410;75;21178;-69
2022/08/08 05:35:47;;;;;;;1.20;0.60;;;28.80;99.90;;;;;;1897785;74;21662;-70
2022/08/08 05:38:21;;;;;;;1.82;0.65;;;28.90;99.90;;;;;;1899823;75;21138;-69
2022/08/08 05:40:54;;;;;;;0.88;0.50;;;29.00;99.90;;;;;;1898217;75;21184;-70
2022/08/08 05:43:29;;;;;;;2.37;0.50;;;29.10;99.90;;;;;;1904831;75;21146;-70
2022/08/08 05:46:04;;;;;;;2.45;0.80;;;29.20;99.90;;;;;;1888581;74;21252;-71
2022/08/08 05:48:37;;;;;;;2.30;0.60;;;29.30;99.90;;;;;;1896027;74;21753;-70
2022/08/08 05:51:09;;;;;;;1.17;0.50;;;29.40;99.90;;;;;;1904849;74;21687;-71
2022/08/08 05:53:42;;;;;;;2.15;0.60;;;29.50;99.90;;;;;;1904533;74;21694;-70
2022/08/08 05:56:15;;;;;;;0.90;0.40;;;29.50;99.60;;;;;;1888935;74;21558;-72
2022/08/08 05:58:50;;;;;;;3.10;0.90;;;29.60;99.90;;;;;;1899403;75;21565;-70
2022/08/08 06:01:24;;;;;;;2.15;0.60;;;29.60;99.90;;;;;;1892172;74;21229;-71
2022/08/08 06:03:59;;;;;;;1.17;0.50;;;29.70;99.60;;;;;;1896692;74;21182;-71
2022/08/08 06:06:32;;;;;;;2.10;0.88;;;29.80;98.60;;;;;;1889626;74;21409;-71
2022/08/08 06:09:04;;;;;;;3.12;0.60;;;29.80;99.30;;;;;;1885793;75;22377;-70
2022/08/08 06:11:37;;;;;;;1.32;0.65;;;29.80;99.50;;;;;;1891932;74;21203;-71
2022/08/08 06:14:09;;;;;;;1.90;0.60;;;29.80;99.40;;;;;;1904113;75;21079;-71
2022/08/08 06:16:43;;;;;;;3.98;0.65;;;29.80;99.00;;;;;;1888615;75;21170;-70
2022/08/08 06:19:16;;;;;;;3.80;1.10;;;29.70;99.00;;;;;;1893342;75;21138;-70
2022/08/08 06:21:51;;;;;;;2.22;0.98;;;29.60;99.30;;;;;;1901491;74;21114;-70
2022/08/08 06:24:23;;;;;;;4.78;1.07;;;29.50;99.80;;;;;;1908034;75;21369;-70
2022/08/08 06:26:58;;;;;;;2.95;1.10;;;29.30;99.90;;;;;;1901189;75;21119;-70
2022/08/08 06:29:34;;;;;;;3.65;1.37;;;29.20;99.90;;;;;;1894812;74;21134;-70
2022/08/08 06:32:08;;;;;;;2.65;0.80;;;29.00;99.90;;;;;;1885221;75;21114;-70
2022/08/08 06:34:42;;;;;;;1.82;1.05;;;28.80;99.90;;;;;;1901836;74;21193;-69
2022/08/08 06:37:19;;;;;;;4.45;1.30;;;28.60;99.90;;;;;;1874907;75;21119;-69
2022/08/08 06:39:51;;;;;;;3.83;1.22;;;28.50;99.90;;;;;;1887066;75;21135;-69
2022/08/08 06:42:26;;;;;;;2.85;1.00;;;28.40;99.90;;;;;;1883099;75;21157;-69
2022/08/08 06:44:57;;;;;;;3.47;1.10;;;28.30;99.90;;;;;;1889442;75;21147;-70
2022/08/08 06:47:28;;;;;;;2.22;0.70;;;28.20;99.90;;;;;;1878643;75;21217;-70
2022/08/08 06:50:01;;;;;;;5.85;1.05;;;28.20;99.90;;;;;;1897379;75;21166;-70
2022/08/08 06:52:34;;;;;;;1.42;0.68;;;28.20;99.90;;;;;;1881752;75;21167;-69
2022/08/08 06:55:07;;;;;;;2.60;1.10;;;28.30;99.90;;;;;;1886741;75;21213;-70
2022/08/08 06:57:38;;;;;;;2.30;1.07;;;28.30;99.90;;;;;;1885355;75;21119;-70
2022/08/08 07:00:11;;;;;;;3.80;1.32;;;28.40;99.90;;;;;;1888230;75;21216;-70
2022/08/08 07:02:44;;;;;;;2.47;1.00;;;28.50;99.90;;;;;;1877984;75;21092;-71
2022/08/08 07:05:16;;;;;;;3.05;0.90;;;28.60;99.90;;;;;;1893226;74;21163;-70
2022/08/08 07:07:51;;;;;;;1.50;0.80;;;28.60;99.90;;;;;;1882306;75;21656;-71
2022/08/08 07:10:26;;;;;;;3.05;0.90;;;28.70;99.90;;;;;;1886317;74;21180;-71
2022/08/08 07:12:59;;;;;;;3.47;1.00;;;28.70;99.90;;;;;;1877885;75;21162;-70
2022/08/08 07:15:34;;;;;;;3.67;1.00;;;28.80;99.90;;;;;;1871314;75;21205;-70
2022/08/08 07:18:08;;;;;;;3.33;1.00;;;28.80;99.90;;;;;;1881531;75;21117;-71
2022/08/08 07:20:43;;;;;;;3.50;0.90;;;28.80;99.90;;;;;;1880601;75;21143;-72
2022/08/08 07:23:18;;;;;;;1.65;0.70;;;28.80;99.90;;;;;;1877222;75;21179;-69
2022/08/08 07:25:51;;;;;;;2.37;0.90;;;28.80;99.90;;;;;;1868718;75;21104;-70
2022/08/08 07:28:26;;;;;;;2.50;1.02;;;28.70;99.90;;;;;;1878129;76;21075;-70
2022/08/08 07:30:59;;;;;;;3.52;1.10;;;28.70;99.90;;;;;;1884057;75;21169;-70
2022/08/08 07:33:31;;;;;;;3.52;0.80;;;28.70;99.90;;;;;;1883044;75;21164;-69
2022/08/08 07:36:06;;;;;;;1.95;0.70;;;28.70;99.90;;;;;;1889819;74;21256;-70
2022/08/08 07:38:39;;;;;;;3.35;0.80;;;28.70;99.90;;;;;;1913268;74;21573;-69
2022/08/08 07:41:11;;;;;;;3.62;0.88;;;28.70;99.90;;;;;;1854750;76;21139;-70
2022/08/08 07:43:44;;;;;;;1.95;1.00;;;28.80;99.90;;;;;;1853708;76;21229;-69
2022/08/08 07:46:16;;;;;;;3.58;0.80;;;28.90;99.90;;;;;;1899005;75;21255;-69
2022/08/08 07:48:48;;;;;;;2.15;0.80;;;29.00;99.90;;;;;;1847804;77;21143;-69
2022/08/08 07:51:20;;;;;;;2.35;0.80;;;29.10;99.90;;;;;;1850759;75;21654;-69
2022/08/08 07:53:55;;;;;;;1.75;0.78;;;29.10;99.90;;;;;;1854961;76;21665;-70
2022/08/08 07:56:29;;;;;;;1.90;0.70;;;29.10;99.90;;;;;;1862562;76;21652;-70
2022/08/08 07:59:02;;;;;;;1.90;0.60;;;29.10;99.90;;;;;;1855833;76;21158;-70
2022/08/08 08:01:36;;;;;;;2.55;0.65;;;29.10;99.90;;;;;;1849547;76;21699;-69
2022/08/08 08:04:12;;;;;;;3.33;0.82;;;29.00;99.90;;;;;;1854997;76;21162;-70
2022/08/08 08:06:45;;;;;;;2.07;0.80;;;29.00;99.90;;;;;;1852235;76;21276;-70
2022/08/08 08:09:19;;;;;;;1.22;0.60;;;28.90;99.90;;;;;;1825328;77;21546;-70
2022/08/08 08:11:53;;;;;;;3.02;0.90;;;28.90;99.90;;;;;;1812666;78;21716;-69
2022/08/08 08:14:27;;;;;;;2.47;0.70;;;29.00;99.90;;;;;;1843085;77;21915;-70
2022/08/08 08:16:58;;;;;;;1.87;0.47;;;29.00;99.90;;;;;;1855253;76;21143;-69
2022/08/08 08:19:32;;;;;;;1.67;0.85;;;29.00;99.90;;;;;;1857360;76;21176;-70
2022/08/08 08:22:04;;;;;;;2.75;0.60;;;29.00;99.90;;;;;;1859682;76;21134;-70
2022/08/08 08:24:36;;;;;;;1.70;0.70;;;29.00;99.90;;;;;;1812656;78;21603;-70
2022/08/08 08:27:08;;;;;;;2.02;0.60;;;29.10;99.90;;;;;;1822082;77;21120;-69
2022/08/08 08:29:39;;;;;;;2.12;0.70;;;29.10;99.90;;;;;;1849306;77;21166;-70
2022/08/08 08:32:11;;;;;;;1.35;0.50;;;29.10;99.90;;;;;;1859777;76;21212;-69
2022/08/08 08:34:43;;;;;;;1.62;0.68;;;29.10;99.90;;;;;;1848539;76;21445;-70
2022/08/08 08:37:16;;;;;;;1.32;0.60;;;29.20;99.90;;;;;;1845995;76;21691;-70
2022/08/08 08:39:48;;;;;;;2.25;0.57;;;29.10;99.90;;;;;;1848822;76;21145;-69
2022/08/08 08:42:21;;;;;;;3.47;0.60;;;29.10;99.90;;;;;;1855345;76;21620;-70
2022/08/08 08:44:53;;;;;;;2.17;0.45;;;29.10;99.90;;;;;;1847618;76;21105;-70
2022/08/08 08:47:26;;;;;;;1.52;0.60;;;29.00;99.90;;;;;;1842959;76;21221;-69
2022/08/08 08:49:58;;;;;;;1.92;0.50;;;29.00;99.90;;;;;;1853707;76;21848;-69
2022/08/08 08:52:29;;;;;;;1.37;0.50;;;29.00;99.90;;;;;;1853731;76;21169;-68
2022/08/08 08:55:02;;;;;;;2.02;0.55;;;29.00;99.90;;;;;;1895519;75;21201;-69
2022/08/08 08:57:34;;;;;;;1.25;0.40;;;28.90;99.90;;;;;;1887530;75;21084;-69
2022/08/08 09:00:05;;;;;;;1.72;0.45;;;28.90;99.90;;;;;;1905770;75;21233;-69
2022/08/08 09:02:40;;;;;;;1.55;0.45;;;28.90;99.90;;;;;;1886916;74;21151;-70
2022/08/08 09:05:14;;;;;;;2.77;0.60;;;28.90;99.90;;;;;;1888452;75;21097;-69
2022/08/08 09:07:47;;;;;;;2.17;0.68;;;28.90;99.90;;;;;;1886721;74;21175;-70
2022/08/08 09:10:21;;;;;;;1.72;0.60;;;28.90;99.40;;;;;;1899590;74;21131;-70
2022/08/08 09:12:55;;;;;;;0.88;0.40;;;28.90;99.30;;;;;;1889588;75;21172;-70
2022/08/08 09:15:27;;;;;;;2.25;0.70;;;28.90;99.60;;;;;;1892493;75;21604;-69
2022/08/08 09:18:00;;;;;;;2.02;0.70;;;28.90;99.90;;;;;;1854378;76;21166;-69
2022/08/08 09:20:33;;;;;;;4.22;0.62;;;28.90;99.90;;;;;;1861363;76;21655;-69
2022/08/08 09:23:06;;;;;;;2.05;0.70;;;29.00;99.90;;;;;;1854850;76;21196;-70
2022/08/08 09:25:40;;;;;;;1.60;0.70;;;28.90;99.90;;;;;;1853058;76;21747;-70
2022/08/08 09:28:13;;;;;;;3.17;0.60;;;28.90;99.90;;;;;;1850408;75;21089;-70
2022/08/08 09:30:47;;;;;;;1.42;0.40;;;28.90;99.90;;;;;;1822997;77;21103;-71
2022/08/08 09:33:20;;;;;;;1.45;0.60;;;28.90;99.90;;;;;;1862709;75;21142;-69
2022/08/08 09:35:53;;;;;;;2.12;0.80;;;28.90;99.90;;;;;;1846738;76;21200;-70
2022/08/08 09:38:27;;;;;;;3.72;0.80;;;28.80;99.70;;;;;;1829150;77;21685;-70
2022/08/08 09:41:02;;;;;;;4.03;0.80;;;28.80;99.90;;;;;;1858143;76;21862;-70
2022/08/08 09:43:36;;;;;;;2.52;0.62;;;28.80;99.90;;;;;;1859517;76;21604;-70
2022/08/08 09:46:10;;;;;;;5.03;1.00;;;28.80;99.90;;;;;;1862192;75;21123;-71
2022/08/08 09:48:45;;;;;;;1.80;0.70;;;28.80;99.90;;;;;;1872744;75;21059;-70
2022/08/08 09:51:19;;;;;;;1.35;0.53;;;28.80;99.90;;;;;;1861786;76;21650;-70
2022/08/08 09:53:57;;;;;;;2.95;0.53;;;28.80;99.90;;;;;;1866162;75;21769;-69
2022/08/08 09:56:29;;;;;;;2.83;0.67;;;28.80;99.90;;;;;;1863817;75;21090;-69
2022/08/08 09:59:03;;;;;;;1.72;0.60;;;28.80;99.90;;;;;;1871202;76;21182;-70
2022/08/08 10:01:38;;;;;;;1.95;0.80;;;28.80;99.90;;;;;;1816988;78;21225;-71
2022/08/08 10:04:12;;;;;;;1.27;0.53;;;28.70;99.90;;;;;;1860460;75;21292;-72
2022/08/08 10:06:46;;;;;;;6.45;3.92;;;28.70;99.90;;;;;;1860966;75;21222;-71
2022/08/08 10:09:21;;;;;;;6.05;4.15;;;28.70;99.90;;;;;;1860834;75;21154;-70
2022/08/08 10:11:52;;;;;;;5.28;3.67;;;28.70;99.90;;;;;;1825653;77;21633;-72
2022/08/08 10:14:27;;;;;;;6.25;4.37;;;28.70;99.90;;;;;;1879112;76;21063;-71
2022/08/08 10:16:59;;;;;;;8.78;6.53;;;28.70;99.90;;;;;;1870899;76;21551;-69
2022/08/08 10:19:34;;;;;;;3.37;0.80;;;28.70;99.90;;;;;;1879308;76;21099;-70
2022/08/08 10:22:08;;;;;;;2.92;0.88;;;28.60;99.90;;;;;;1867827;76;21245;-71
2022/08/08 10:24:42;;;;;;;1.62;0.80;;;28.60;99.90;;;;;;1882615;76;21245;-69
2022/08/08 10:27:14;;;;;;;2.70;0.75;;;28.60;99.90;;;;;;1861468;75;21126;-70
2022/08/08 10:29:48;;;;;;;4.87;0.75;;;28.60;99.90;;;;;;1870718;76;21193;-70
2022/08/08 10:32:31;;;;;;;5.95;0.90;;;28.60;99.90;;;;;;1864028;76;21274;-70
2022/08/08 10:34:57;;;;;;;2.50;0.80;;;28.60;99.90;;;;;;1910348;75;21109;-70
2022/08/08 10:37:31;;;;;;;1.70;0.80;;;28.60;99.90;;;;;;1908989;74;21496;-69
2022/08/08 10:40:06;;;;;;;3.95;0.90;;;28.60;99.90;;;;;;1884536;75;21168;-71
2022/08/08 10:42:38;;;;;;;2.40;0.90;;;28.60;99.90;;;;;;1902583;75;21100;-70
2022/08/08 10:45:12;;;;;;;3.05;0.80;;;28.50;99.90;;;;;;1884986;75;21588;-70
2022/08/08 10:47:45;;;;;;;3.05;0.90;;;28.50;99.90;;;;;;1894160;75;21604;-70
2022/08/08 10:50:17;;;;;;;4.53;0.82;;;28.50;99.90;;;;;;1848613;75;21181;-71
2022/08/08 10:52:49;;;;;;;2.47;0.70;;;28.50;99.90;;;;;;1830308;77;21137;-71
2022/08/08 10:55:20;;;;;;;4.28;1.10;;;28.40;99.90;;;;;;1853297;76;21128;-71
2022/08/08 10:57:53;;;;;;;2.67;1.00;;;28.30;99.90;;;;;;1844453;77;21149;-70
2022/08/08 11:00:26;;;;;;;3.22;0.95;;;28.30;99.90;;;;;;1867428;76;21218;-70
2022/08/08 11:03:00;;;;;;;2.83;0.95;;;28.30;99.90;;;;;;1869108;76;21160;-69
2022/08/08 11:05:31;;;;;;;4.25;1.10;;;28.30;99.90;;;;;;1853505;76;21161;-71
2022/08/08 11:08:04;;;;;;;3.58;1.20;;;28.30;99.90;;;;;;1853675;76;21183;-70
2022/08/08 11:10:36;;;;;;;2.45;1.05;;;28.30;99.90;;;;;;1845232;77;21143;-70
2022/08/08 11:13:08;;;;;;;3.10;0.80;;;28.20;99.90;;;;;;1886551;75;21183;-70
2022/08/08 11:15:42;;;;;;;1.72;0.95;;;28.20;99.90;;;;;;1855031;76;21271;-70
2022/08/08 11:18:15;;;;;;;2.25;1.00;;;28.20;99.90;;;;;;1854729;76;21175;-70
2022/08/08 11:20:49;;;;;;;2.85;1.12;;;28.10;99.90;;;;;;1830696;77;21737;-69
2022/08/08 11:23:23;;;;;;;2.75;1.10;;;28.10;99.90;;;;;;1827752;77;21185;-70
2022/08/08 11:25:56;;;;;;;3.52;1.17;;;28.10;99.90;;;;;;1864558;76;21181;-70
2022/08/08 11:28:29;;;;;;;3.98;1.35;;;28.00;99.90;;;;;;1829284;77;21177;-70
2022/08/08 11:31:02;;;;;;;3.52;1.20;;;28.00;99.90;;;;;;1826233;77;21233;-70
2022/08/08 11:33:36;;;;;;;3.87;1.40;;;28.00;99.90;;;;;;1850174;75;21554;-83
2022/08/08 11:36:09;;;;;;;2.75;1.17;;;28.00;99.90;;;;;;1849123;76;21702;-83
2022/08/08 11:38:44;;;;;;;3.65;1.40;;;28.00;99.90;;;;;;1836675;76;21146;-84
2022/08/08 11:41:18;;;;;;;3.17;1.22;;;28.00;99.90;;;;;;1834129;77;21231;-83
2022/08/08 11:43:50;;;;;;;2.40;1.30;;;27.90;99.90;;;;;;1844995;77;21124;-83
2022/08/08 11:46:24;;;;;;;5.58;1.87;;;27.90;99.90;;;;;;1849210;76;21170;-83
2022/08/08 11:48:58;;;;;;;5.83;1.30;;;27.90;99.90;;;;;;1847996;75;21142;-83
2022/08/08 11:51:29;;;;;;;5.12;1.40;;;27.90;99.90;;;;;;1870595;76;21158;-84
2022/08/08 11:54:01;;;;;;;4.90;1.42;;;27.90;99.90;;;;;;1784091;77;21115;-83
2022/08/08 11:56:34;;;;;;;3.10;1.57;;;27.90;99.90;;;;;;1782901;80;21186;-83
2022/08/08 11:59:09;;;;;;;2.25;1.10;;;27.80;99.90;;;;;;1839364;77;21689;-82
2022/08/08 12:01:40;;;;;;;2.72;1.52;;;27.80;99.90;;;;;;1846691;77;21201;-84
2022/08/08 12:04:12;;;;;;;6.15;1.52;;;27.80;99.90;;;;;;1845146;78;21053;-84
2022/08/08 12:06:43;;;;;;;3.35;1.50;;;27.70;99.90;;;;;;1846374;77;21562;-83
2022/08/08 12:09:16;;;;;;;3.00;1.20;;;27.70;99.90;;;;;;1849468;76;21214;-83
2022/08/08 12:11:47;;;;;;;3.55;1.45;;;27.70;99.90;;;;;;1857713;77;21702;-83
2022/08/08 12:14:21;;;;;;;4.12;1.50;;;27.70;99.90;;;;;;1856798;76;21560;-82
2022/08/08 12:16:56;;;;;;;3.47;1.65;;;27.70;99.90;;;;;;1831994;77;21223;-82
2022/08/08 12:19:26;;;;;;;3.80;1.65;;;27.70;99.90;;;;;;1862973;77;21726;-83
2022/08/08 12:22:01;;;;;;;5.87;2.08;;;27.70;99.90;;;;;;1851996;76;21226;-82
2022/08/08 12:24:36;;;;;;;4.03;1.70;;;27.60;99.90;;;;;;1832498;77;21228;-81
2022/08/08 12:27:10;;;;;;;3.65;2.00;;;27.60;99.90;;;;;;1859132;75;21072;-83
2022/08/08 12:29:44;;;;;;;3.10;1.52;;;27.60;99.90;;;;;;1856989;76;21138;-82
2022/08/08 12:32:17;;;;;;;3.47;1.57;;;27.60;99.90;;;;;;1851655;76;21088;-81
2022/08/08 12:34:52;;;;;;;3.45;1.70;;;27.60;99.90;;;;;;1860920;76;21628;-83
2022/08/08 12:37:28;;;;;;;6.10;1.60;;;27.50;99.90;;;;;;1856815;76;21194;-81
2022/08/08 12:40:04;;;;;;;3.92;1.52;;;27.50;99.90;;;;;;1870349;75;21606;-81
2022/08/08 12:42:37;;;;;;;3.20;1.62;;;27.50;99.90;;;;;;1853825;74;21202;-82
2022/08/08 12:45:10;;;;;;;3.95;2.15;;;27.50;99.90;;;;;;1877751;75;21052;-82
2022/08/08 12:47:42;;;;;;;3.67;1.60;;;27.50;99.90;;;;;;1865540;76;21142;-83
2022/08/08 12:50:15;;;;;;;4.35;1.55;;;27.40;99.90;;;;;;1847844;76;21148;-82
2022/08/08 12:52:49;;;;;;;2.95;1.50;;;27.50;99.90;;;;;;1864169;75;21163;-82
2022/08/08 12:55:20;;;;;;;4.47;1.80;;;27.40;99.90;;;;;;1849172;76;21135;-82
2022/08/08 12:57:53;;;;;;;4.37;1.70;;;27.40;99.90;;;;;;1853183;76;21167;-83
2022/08/08 13:00:28;;;;;;;3.50;1.67;;;27.40;99.90;;;;;;1855380;75;21139;-82
2022/08/08 13:03:00;;;;;;;2.80;1.57;;;27.40;99.90;;;;;;1853314;76;21134;-81
2022/08/08 13:05:31;;;;;;;4.97;1.77;;;27.40;99.90;;;;;;1857452;76;21526;-83
2022/08/08 13:08:06;;;;;;;4.22;1.75;;;27.40;99.90;;;;;;1849512;76;21150;-81
2022/08/08 13:10:42;;;;;;;4.58;1.65;;;27.40;99.90;;;;;;1868814;74;21131;-82
2022/08/08 13:13:20;;;;;;;6.15;1.90;;;27.40;99.90;;;;;;1851308;76;21677;-82
2022/08/08 13:15:51;;;;;;;8.33;2.08;;;27.40;99.90;;;;;;1861347;76;21745;-82
2022/08/08 13:18:24;;;;;;;4.92;1.57;;;27.40;99.90;;;;;;1864946;76;21642;-83
2022/08/08 13:20:57;;;;;;;3.33;1.57;;;27.40;99.90;;;;;;1853824;76;21119;-83
2022/08/08 13:23:29;;;;;;;3.17;1.47;;;27.40;99.90;;;;;;1831311;76;21251;-81
2022/08/08 13:26:02;;;;;;;5.50;1.50;;;27.30;99.90;;;;;;1853262;76;21212;-82
2022/08/08 13:28:34;;;;;;;3.95;1.60;;;27.30;99.90;;;;;;1850213;75;21476;-84
2022/08/08 13:31:09;;;;;;;5.22;1.65;;;27.30;99.90;;;;;;1859975;75;21286;-83
2022/08/08 13:33:40;;;;;;;7.20;2.10;;;27.20;99.90;;;;;;1855427;76;21139;-81
2022/08/08 13:36:12;;;;;;;3.55;2.00;;;27.20;99.90;;;;;;1862359;75;21987;-84
2022/08/08 13:38:44;;;;;;;5.67;2.35;;;27.20;99.90;;;;;;1866329;75;21174;-82
2022/08/08 13:41:15;;;;;;;5.15;2.40;;;27.20;99.90;;;;;;1855837;76;21949;-83
2022/08/08 13:43:48;;;;;;;5.05;2.42;;;27.20;99.90;;;;;;1824468;78;21411;-81
2022/08/08 13:46:20;;;;;;;2.95;1.72;;;27.20;99.90;;;;;;1854721;76;21135;-83
2022/08/08 13:48:57;;;;;;;5.92;1.92;;;27.10;99.90;;;;;;1866104;76;21125;-81
2022/08/08 13:51:28;;;;;;;4.70;1.98;;;27.10;99.90;;;;;;1852192;76;21206;-81
2022/08/08 13:54:06;;;;;;;2.92;1.70;;;27.10;99.90;;;;;;1858072;76;21100;-81
2022/08/08 13:56:38;;;;;;;5.58;2.22;;;27.10;99.90;;;;;;1862788;76;21201;-80
2022/08/08 13:59:11;;;;;;;3.37;1.95;;;27.10;99.90;;;;;;1903718;74;21063;-80
2022/08/08 14:01:58;;;;;;;3.87;2.40;;;27.00;99.90;;;;;;1857190;76;21108;-80
2022/08/08 14:04:29;;;;;;;3.85;2.10;;;27.00;99.90;;;;;;1812589;78;21166;-80
2022/08/08 14:07:05;;;;;;;5.85;2.27;;;27.00;99.90;;;;;;1790853;77;21201;-82
2022/08/08 14:09:39;;;;;;;3.17;2.13;;;27.00;99.90;;;;;;1864229;76;21127;-81
2022/08/08 14:12:11;;;;;;;2.95;1.90;;;27.00;99.90;;;;;;1830023;77;21175;-80
2022/08/08 14:15:00;;;;;;;6.58;2.17;;;27.00;99.90;;;;;;1822891;77;21155;-80
2022/08/08 14:17:34;;;;;;;3.27;2.10;;;26.90;99.90;;;;;;1828843;78;21134;-82
2022/08/08 14:20:08;;;;;;;5.55;2.20;;;27.00;99.90;;;;;;1825971;76;21122;-81
2022/08/08 14:22:41;;;;;;;3.17;2.00;;;27.00;99.90;;;;;;1831444;78;21171;-80
2022/08/08 14:25:12;;;;;;;5.85;2.20;;;27.00;99.90;;;;;;1825762;77;21177;-81
2022/08/08 14:27:44;;;;;;;3.72;2.55;;;27.00;99.90;;;;;;1852639;76;21132;-80
2022/08/08 14:30:25;;;;;;;2.67;1.67;;;27.00;99.90;;;;;;1851286;76;21224;-81
2022/08/08 14:33:01;;;;;;;6.22;2.12;;;26.90;99.90;;;;;;1813990;76;21158;-81
2022/08/08 14:35:41;;;;;;;3.53;1.80;;;26.90;99.90;;;;;;1902665;75;21134;-81
2022/08/08 14:38:18;;;;;;;3.90;1.90;;;26.90;99.90;;;;;;1851712;77;21150;-81
2022/08/08 14:40:51;;;;;;;4.35;2.00;;;26.90;99.90;;;;;;1792646;77;21311;-82
2022/08/08 14:43:28;;;;;;;6.53;2.22;;;26.90;99.90;;;;;;1822195;78;21157;-80
2022/08/08 14:46:05;;;;;;;3.58;1.95;;;26.90;99.90;;;;;;1855216;75;21236;-82
2022/08/08 14:48:45;;;;;;;3.42;1.98;;;26.90;99.90;;;;;;1809985;78;21043;-82
2022/08/08 14:51:21;;;;;;;4.12;2.10;;;26.90;99.90;;;;;;1884876;75;21130;-82
2022/08/08 14:53:57;;;;;;;3.45;1.87;;;26.80;99.90;;;;;;1882635;74;21612;-81
2022/08/08 14:56:27;;;;;;;3.93;1.80;;;26.80;99.90;;;;;;1878055;75;21115;-80
2022/08/08 14:58:59;;;;;;;4.60;2.08;;;26.80;99.90;;;;;;1876420;75;21135;-82
2022/08/08 15:01:34;;;;;;;7.53;2.12;;;26.90;99.90;;;;;;1858329;76;21221;-81
2022/08/08 15:04:07;;;;;;;4.22;1.87;;;26.90;99.90;;;;;;1841236;76;21174;-82
2022/08/08 15:06:42;;;;;;;3.62;2.10;;;26.90;99.90;;;;;;1853192;76;21115;-82
2022/08/08 15:09:14;;;;;;;6.10;2.35;;;26.90;99.90;;;;;;1861254;76;21135;-82
2022/08/08 15:11:49;;;;;;;3.70;2.08;;;26.90;99.90;;;;;;1837257;77;21559;-81
2022/08/08 15:14:24;;;;;;;3.27;2.02;;;26.90;99.90;;;;;;1847383;77;21148;-81
2022/08/08 15:16:55;;;;;;;3.30;2.33;;;26.90;99.90;;;;;;1828482;77;21151;-81
2022/08/08 15:19:27;;;;;;;5.30;2.10;;;26.90;99.90;;;;;;1821634;78;21104;-81
2022/08/08 15:22:02;;;;;;;3.58;2.25;;;26.90;99.90;;;;;;1832659;77;21244;-82
2022/08/08 15:24:34;;;;;;;3.45;2.12;;;26.90;99.90;;;;;;1837433;77;21254;-81
2022/08/08 15:27:09;;;;;;;3.62;2.10;;;26.90;99.90;;;;;;1842770;77;21173;-81
2022/08/08 15:29:47;;;;;;;5.62;2.25;;;26.80;99.90;;;;;;1819783;77;21096;-83
2022/08/08 15:32:16;;;;;;;4.00;2.20;;;26.80;99.90;;;;;;1813878;77;21560;-82
2022/08/08 15:34:49;;;;;;;5.40;2.00;;;26.80;99.90;;;;;;1837411;76;21241;-82
2022/08/08 15:37:24;;;;;;;4.58;2.17;;;26.80;99.90;;;;;;1896463;75;21170;-82
2022/08/08 15:39:56;;;;;;;3.52;2.15;;;26.80;99.90;;;;;;1879720;75;21203;-83
2022/08/08 15:42:31;;;;;;;4.15;2.22;;;26.80;99.90;;;;;;1828791;76;21161;-81
2022/08/08 15:45:04;;;;;;;3.67;2.40;;;26.80;99.90;;;;;;1801547;78;21093;-81
2022/08/08 15:47:35;;;;;;;4.58;2.02;;;26.80;99.90;;;;;;1873543;75;21113;-81
2022/08/08 15:50:08;;;;;;;3.25;2.20;;;26.70;99.90;;;;;;1865839;76;21277;-82